createdAt,value
2022-12-16T00:00:37.346Z,0.00
2022-12-16T00:01:37.123Z,0.00
2022-12-16T00:02:37.366Z,0.00
2022-12-16T00:03:37.431Z,0.00
2022-12-16T00:04:37.233Z,0.00
2022-12-16T00:05:42.698Z,0.00
2022-12-16T00:06:38.003Z,0.00
2022-12-16T00:07:37.015Z,0.00
2022-12-16T00:08:36.993Z,0.00
2022-12-16T00:09:37.192Z,0.00
2022-12-16T00:10:36.962Z,0.00
2022-12-16T00:11:36.961Z,0.00
2022-12-16T00:12:36.952Z,0.00
2022-12-16T00:13:37.007Z,0.00
2022-12-16T00:14:37.123Z,0.00
2022-12-16T00:15:36.922Z,0.00
2022-12-16T00:16:36.938Z,0.00
2022-12-16T00:17:36.879Z,0.00
2022-12-16T00:18:36.860Z,0.00
2022-12-16T00:19:37.048Z,0.00
2022-12-16T00:20:36.849Z,0.00
2022-12-16T00:21:36.838Z,0.00
2022-12-16T00:22:37.018Z,0.00
2022-12-16T00:23:36.907Z,0.00
2022-12-16T00:24:37.008Z,0.00
2022-12-16T00:25:36.787Z,0.00
2022-12-16T00:26:36.776Z,0.00
2022-12-16T00:27:36.757Z,0.00
2022-12-16T00:28:36.946Z,0.00
2022-12-16T00:29:36.737Z,0.00
2022-12-16T00:30:36.918Z,0.00
2022-12-16T00:31:36.798Z,0.00
2022-12-16T00:32:36.695Z,0.00
2022-12-16T00:33:36.976Z,0.00
2022-12-16T00:34:36.887Z,0.00
2022-12-16T00:35:39.470Z,0.00
2022-12-16T00:36:37.643Z,0.00
2022-12-16T00:37:36.637Z,0.00
2022-12-16T00:38:36.812Z,0.00
2022-12-16T00:39:36.826Z,0.00
2022-12-16T00:40:36.604Z,0.00
2022-12-16T00:41:36.591Z,0.00
2022-12-16T00:42:36.782Z,0.00
2022-12-16T00:43:36.885Z,0.00
2022-12-16T00:44:36.552Z,0.00
2022-12-16T00:45:36.586Z,0.00
2022-12-16T00:46:36.531Z,0.00
2022-12-16T00:47:40.942Z,0.00
2022-12-16T00:48:37.702Z,0.00
2022-12-16T00:49:36.491Z,0.00
2022-12-16T00:50:36.699Z,0.00
2022-12-16T00:51:36.478Z,0.00
2022-12-16T00:52:36.680Z,0.00
2022-12-16T00:53:36.717Z,0.00
2022-12-16T00:54:36.438Z,0.00
2022-12-16T00:55:36.419Z,0.00
2022-12-16T00:56:36.409Z,0.00
2022-12-16T00:57:36.388Z,0.00
2022-12-16T00:58:36.580Z,0.00
2022-12-16T00:59:36.385Z,0.00
2022-12-16T01:00:36.385Z,0.00
2022-12-16T01:01:36.728Z,0.00
2022-12-16T01:02:36.420Z,0.00
2022-12-16T01:03:36.927Z,0.00
2022-12-16T01:04:36.333Z,0.00
2022-12-16T01:05:36.305Z,0.00
2022-12-16T01:06:36.303Z,0.00
2022-12-16T01:07:36.288Z,0.00
2022-12-16T01:08:36.454Z,0.00
2022-12-16T01:09:36.254Z,0.00
2022-12-16T01:10:36.263Z,0.00
2022-12-16T01:11:36.245Z,0.00
2022-12-16T01:12:36.213Z,0.00
2022-12-16T01:13:36.512Z,0.00
2022-12-16T01:14:36.193Z,0.00
2022-12-16T01:15:36.195Z,0.00
2022-12-16T01:16:36.430Z,0.00
2022-12-16T01:17:36.166Z,0.00
2022-12-16T01:18:36.141Z,0.00
2022-12-16T01:19:36.145Z,0.00
2022-12-16T01:20:36.129Z,0.00
2022-12-16T01:21:36.351Z,0.00
2022-12-16T01:22:36.110Z,0.00
2022-12-16T01:23:36.356Z,0.00
2022-12-16T01:24:36.291Z,0.00
2022-12-16T01:25:36.060Z,0.00
2022-12-16T01:26:36.048Z,0.00
2022-12-16T01:27:36.060Z,0.00
2022-12-16T01:28:36.027Z,0.00
2022-12-16T01:29:36.017Z,0.00
2022-12-16T01:30:35.998Z,0.00
2022-12-16T01:31:36.070Z,0.00
2022-12-16T01:32:36.197Z,0.00
2022-12-16T01:33:36.360Z,0.00
2022-12-16T01:34:36.247Z,0.00
2022-12-16T01:36:36.926Z,0.00
2022-12-16T01:37:35.965Z,0.00
2022-12-16T01:38:35.906Z,0.00
2022-12-16T01:39:36.094Z,0.00
2022-12-16T01:40:35.874Z,0.00
2022-12-16T01:41:35.864Z,0.00
2022-12-16T01:42:36.086Z,0.00
2022-12-16T01:43:36.259Z,0.00
2022-12-16T01:44:36.054Z,0.00
2022-12-16T01:45:35.907Z,0.00
2022-12-16T01:46:35.804Z,0.00
2022-12-16T01:47:35.824Z,0.00
2022-12-16T01:48:35.795Z,0.00
2022-12-16T01:49:35.990Z,0.00
2022-12-16T01:50:35.761Z,0.00
2022-12-16T01:51:35.742Z,0.00
2022-12-16T01:52:35.742Z,0.00
2022-12-16T01:53:36.052Z,0.00
2022-12-16T01:54:35.929Z,0.00
2022-12-16T01:55:35.700Z,0.00
2022-12-16T01:56:35.711Z,0.00
2022-12-16T01:57:35.674Z,0.00
2022-12-16T01:58:35.891Z,0.00
2022-12-16T01:59:35.652Z,0.00
2022-12-16T02:00:35.849Z,0.00
2022-12-16T02:01:35.767Z,0.00
2022-12-16T02:02:35.784Z,0.00
2022-12-16T02:03:36.546Z,0.00
2022-12-16T02:04:35.792Z,0.00
2022-12-16T02:05:35.587Z,0.00
2022-12-16T02:06:35.577Z,0.00
2022-12-16T02:07:35.557Z,0.00
2022-12-16T02:08:35.740Z,0.00
2022-12-16T02:09:35.728Z,0.00
2022-12-16T02:10:35.526Z,0.00
2022-12-16T02:11:35.505Z,0.00
2022-12-16T02:12:35.497Z,0.00
2022-12-16T02:13:36.237Z,0.00
2022-12-16T02:14:35.475Z,0.00
2022-12-16T02:15:35.455Z,0.00
2022-12-16T02:16:35.563Z,0.00
2022-12-16T02:17:35.433Z,0.00
2022-12-16T02:18:35.644Z,0.00
2022-12-16T02:19:35.406Z,0.00
2022-12-16T02:20:35.404Z,0.00
2022-12-16T02:21:35.603Z,0.00
2022-12-16T02:22:35.583Z,0.00
2022-12-16T02:23:35.555Z,0.00
2022-12-16T02:24:35.353Z,0.00
2022-12-16T02:25:35.534Z,0.00
2022-12-16T02:26:35.332Z,0.00
2022-12-16T02:27:35.332Z,0.00
2022-12-16T02:28:35.313Z,0.00
2022-12-16T02:29:35.520Z,0.00
2022-12-16T02:30:35.364Z,0.00
2022-12-16T02:31:35.260Z,0.00
2022-12-16T02:32:35.260Z,0.00
2022-12-16T02:33:35.832Z,0.00
2022-12-16T02:34:35.259Z,0.00
2022-12-16T02:35:35.228Z,0.00
2022-12-16T02:36:35.218Z,0.00
2022-12-16T02:37:35.199Z,0.00
2022-12-16T02:38:35.412Z,0.00
2022-12-16T02:39:35.181Z,0.00
2022-12-16T02:40:35.158Z,0.00
2022-12-16T02:41:35.147Z,0.00
2022-12-16T02:42:35.136Z,0.00
2022-12-16T02:43:35.604Z,0.00
2022-12-16T02:44:35.335Z,0.00
2022-12-16T02:45:35.163Z,0.00
2022-12-16T02:46:35.096Z,0.00
2022-12-16T02:47:35.086Z,0.00
2022-12-16T02:48:35.067Z,0.00
2022-12-16T02:49:35.084Z,0.00
2022-12-16T02:50:35.073Z,0.00
2022-12-16T02:51:35.027Z,0.00
2022-12-16T02:52:35.033Z,0.00
2022-12-16T02:53:35.306Z,0.00
2022-12-16T02:54:35.184Z,0.00
2022-12-16T02:55:34.975Z,0.00
2022-12-16T02:56:34.972Z,0.00
2022-12-16T02:57:35.182Z,0.00
2022-12-16T02:58:34.952Z,0.00
2022-12-16T02:59:34.931Z,0.00
2022-12-16T03:00:35.151Z,0.00
2022-12-16T03:01:34.993Z,0.00
2022-12-16T03:02:35.058Z,0.00
2022-12-16T03:03:35.485Z,0.00
2022-12-16T03:04:34.880Z,0.00
2022-12-16T03:05:35.061Z,0.00
2022-12-16T03:06:34.859Z,0.00
2022-12-16T03:07:34.838Z,0.00
2022-12-16T03:08:34.838Z,0.00
2022-12-16T03:09:34.817Z,0.00
2022-12-16T03:10:35.017Z,0.00
2022-12-16T03:11:34.787Z,0.00
2022-12-16T03:12:34.776Z,0.00
2022-12-16T03:13:35.033Z,0.00
2022-12-16T03:14:34.747Z,0.00
2022-12-16T03:15:34.756Z,0.00
2022-12-16T03:16:35.040Z,0.00
2022-12-16T03:17:34.715Z,0.00
2022-12-16T03:18:34.705Z,0.00
2022-12-16T03:19:34.702Z,0.00
2022-12-16T03:20:34.685Z,0.00
2022-12-16T03:21:34.694Z,0.00
2022-12-16T03:22:34.653Z,0.00
2022-12-16T03:23:34.991Z,0.00
2022-12-16T03:24:34.635Z,0.00
2022-12-16T03:25:34.834Z,0.00
2022-12-16T03:26:34.813Z,0.00
2022-12-16T03:27:34.812Z,0.00
2022-12-16T03:28:34.583Z,0.00
2022-12-16T03:29:34.572Z,0.00
2022-12-16T03:30:34.601Z,0.00
2022-12-16T03:31:34.760Z,0.00
2022-12-16T03:32:34.738Z,0.00
2022-12-16T03:33:34.834Z,0.00
2022-12-16T03:34:34.512Z,0.00
2022-12-16T03:35:34.499Z,0.00
2022-12-16T03:36:34.492Z,0.00
2022-12-16T03:37:34.712Z,0.00
2022-12-16T03:38:34.469Z,0.00
2022-12-16T03:39:34.458Z,0.00
2022-12-16T03:40:34.456Z,0.00
2022-12-16T03:41:34.448Z,0.00
2022-12-16T03:42:34.631Z,0.00
2022-12-16T03:43:34.848Z,0.00
2022-12-16T03:44:34.388Z,0.00
2022-12-16T03:45:34.377Z,0.00
2022-12-16T03:46:34.410Z,0.00
2022-12-16T03:47:34.547Z,0.00
2022-12-16T03:48:34.586Z,0.00
2022-12-16T03:49:34.335Z,0.00
2022-12-16T03:50:34.326Z,0.00
2022-12-16T03:51:34.314Z,0.00
2022-12-16T03:52:34.514Z,0.00
2022-12-16T03:53:34.670Z,0.00
2022-12-16T03:54:34.274Z,0.00
2022-12-16T03:55:34.272Z,0.00
2022-12-16T03:56:34.263Z,0.00
2022-12-16T03:57:34.563Z,0.00
2022-12-16T03:58:34.223Z,0.00
2022-12-16T03:59:34.222Z,0.00
2022-12-16T04:00:34.204Z,0.00
2022-12-16T04:01:34.339Z,0.00
2022-12-16T04:02:34.401Z,0.00
2022-12-16T04:03:34.628Z,0.00
2022-12-16T04:04:34.151Z,0.00
2022-12-16T04:05:34.160Z,0.00
2022-12-16T04:06:34.160Z,0.00
2022-12-16T04:07:34.130Z,0.00
2022-12-16T04:08:34.131Z,0.00
2022-12-16T04:09:34.121Z,0.00
2022-12-16T04:10:34.281Z,0.00
2022-12-16T04:11:34.084Z,0.00
2022-12-16T04:12:34.069Z,0.00
2022-12-16T04:13:34.390Z,0.00
2022-12-16T04:14:34.037Z,0.00
2022-12-16T04:15:34.390Z,0.00
2022-12-16T04:16:34.007Z,0.00
2022-12-16T04:17:33.997Z,0.00
2022-12-16T04:18:34.002Z,0.00
2022-12-16T04:19:34.301Z,0.00
2022-12-16T04:20:33.976Z,0.00
2022-12-16T04:21:33.956Z,0.00
2022-12-16T04:22:33.944Z,0.00
2022-12-16T04:23:34.341Z,0.00
2022-12-16T04:24:34.135Z,0.00
2022-12-16T04:25:33.914Z,0.00
2022-12-16T04:26:33.894Z,0.00
2022-12-16T04:27:33.886Z,0.00
2022-12-16T04:28:33.866Z,0.00
2022-12-16T04:29:33.864Z,0.00
2022-12-16T04:30:34.073Z,0.00
2022-12-16T04:31:33.865Z,0.00
2022-12-16T04:32:33.814Z,0.00
2022-12-16T04:33:34.171Z,0.00
2022-12-16T04:34:33.812Z,0.00
2022-12-16T04:35:33.815Z,0.00
2022-12-16T04:36:33.774Z,0.00
2022-12-16T04:37:33.772Z,0.00
2022-12-16T04:38:33.750Z,0.00
2022-12-16T04:39:33.740Z,0.00
2022-12-16T04:40:33.910Z,0.00
2022-12-16T04:41:33.717Z,0.00
2022-12-16T04:42:33.702Z,0.00
2022-12-16T04:43:34.066Z,0.00
2022-12-16T04:44:33.677Z,0.00
2022-12-16T04:45:33.667Z,0.00
2022-12-16T04:46:33.712Z,0.00
2022-12-16T04:47:33.878Z,0.00
2022-12-16T04:48:33.628Z,0.00
2022-12-16T04:49:33.841Z,0.00
2022-12-16T04:50:33.597Z,0.00
2022-12-16T04:51:33.596Z,0.00
2022-12-16T04:52:33.575Z,0.00
2022-12-16T04:53:34.032Z,0.00
2022-12-16T04:54:33.557Z,0.00
2022-12-16T04:55:33.578Z,0.00
2022-12-16T04:56:33.535Z,0.00
2022-12-16T04:57:33.736Z,0.00
2022-12-16T04:58:33.515Z,0.00
2022-12-16T04:59:33.526Z,0.00
2022-12-16T05:00:33.485Z,0.00
2022-12-16T05:01:33.584Z,0.00
2022-12-16T05:02:33.808Z,0.00
2022-12-16T05:03:33.957Z,0.00
2022-12-16T05:04:33.652Z,0.00
2022-12-16T05:05:33.440Z,0.00
2022-12-16T05:06:33.442Z,0.00
2022-12-16T05:07:38.153Z,0.00
2022-12-16T05:08:34.394Z,0.00
2022-12-16T05:09:33.385Z,0.00
2022-12-16T05:10:33.372Z,0.00
2022-12-16T05:11:33.422Z,0.00
2022-12-16T05:12:33.340Z,0.00
2022-12-16T05:13:33.782Z,0.00
2022-12-16T05:14:33.319Z,0.00
2022-12-16T05:15:33.309Z,0.00
2022-12-16T05:16:33.372Z,0.00
2022-12-16T05:17:33.291Z,0.00
2022-12-16T05:18:33.288Z,0.00
2022-12-16T05:19:33.478Z,0.00
2022-12-16T05:20:33.248Z,0.00
2022-12-16T05:21:33.253Z,0.00
2022-12-16T05:22:33.436Z,0.00
2022-12-16T05:23:33.687Z,0.00
2022-12-16T05:24:33.220Z,0.00
2022-12-16T05:25:33.186Z,0.00
2022-12-16T05:26:33.192Z,0.00
2022-12-16T05:27:33.399Z,0.00
2022-12-16T05:28:33.144Z,0.00
2022-12-16T05:29:33.167Z,0.00
2022-12-16T05:30:33.979Z,0.00
2022-12-16T05:31:33.396Z,0.00
2022-12-16T05:32:33.137Z,0.00
2022-12-16T05:33:33.858Z,0.00
2022-12-16T05:34:33.083Z,0.00
2022-12-16T05:35:33.075Z,0.00
2022-12-16T05:36:33.054Z,0.00
2022-12-16T05:37:33.064Z,0.00
2022-12-16T05:38:33.034Z,0.00
2022-12-16T05:39:33.221Z,0.00
2022-12-16T05:40:33.012Z,0.00
2022-12-16T05:41:33.261Z,0.00
2022-12-16T05:42:32.991Z,0.00
2022-12-16T05:43:33.454Z,0.00
2022-12-16T05:44:32.980Z,0.00
2022-12-16T05:45:32.950Z,0.00
2022-12-16T05:46:33.127Z,0.00
2022-12-16T05:47:33.223Z,0.00
2022-12-16T05:48:33.136Z,0.00
2022-12-16T05:49:32.899Z,0.00
2022-12-16T05:50:32.899Z,0.00
2022-12-16T05:51:32.889Z,0.00
2022-12-16T05:52:33.099Z,0.00
2022-12-16T05:53:33.259Z,0.00
2022-12-16T05:54:32.837Z,0.00
2022-12-16T05:55:34.274Z,0.00
2022-12-16T05:56:32.817Z,0.00
2022-12-16T05:57:32.811Z,0.00
2022-12-16T05:58:32.808Z,0.00
2022-12-16T05:59:32.995Z,0.00
2022-12-16T06:00:32.764Z,0.00
2022-12-16T06:01:32.893Z,0.00
2022-12-16T06:02:32.919Z,0.00
2022-12-16T06:03:33.365Z,0.00
2022-12-16T06:04:32.935Z,0.00
2022-12-16T06:05:32.713Z,0.00
2022-12-16T06:06:32.696Z,0.00
2022-12-16T06:07:32.711Z,0.00
2022-12-16T06:08:32.873Z,0.00
2022-12-16T06:09:32.662Z,0.00
2022-12-16T06:10:32.652Z,0.00
2022-12-16T06:11:32.684Z,0.00
2022-12-16T06:12:32.622Z,0.00
2022-12-16T06:13:33.019Z,0.00
2022-12-16T06:14:32.601Z,0.00
2022-12-16T06:15:32.832Z,0.00
2022-12-16T06:16:32.631Z,0.00
2022-12-16T06:17:32.570Z,0.00
2022-12-16T06:18:32.552Z,0.00
2022-12-16T06:19:32.550Z,0.00
2022-12-16T06:20:32.532Z,0.00
2022-12-16T06:21:32.738Z,0.00
2022-12-16T06:22:32.519Z,0.00
2022-12-16T06:23:32.818Z,0.00
2022-12-16T06:24:32.500Z,0.00
2022-12-16T06:25:32.486Z,0.00
2022-12-16T06:26:32.480Z,0.00
2022-12-16T06:27:32.465Z,0.00
2022-12-16T06:28:32.437Z,0.00
2022-12-16T06:29:32.436Z,0.00
2022-12-16T06:30:32.415Z,0.00
2022-12-16T06:31:32.649Z,0.00
2022-12-16T06:32:32.615Z,0.00
2022-12-16T06:33:32.731Z,0.00
2022-12-16T06:34:32.366Z,0.00
2022-12-16T06:35:32.534Z,0.00
2022-12-16T06:36:32.354Z,0.00
2022-12-16T06:37:32.555Z,0.00
2022-12-16T06:38:32.316Z,0.00
2022-12-16T06:39:32.317Z,0.00
2022-12-16T06:40:32.326Z,0.00
2022-12-16T06:41:32.495Z,0.00
2022-12-16T06:42:32.262Z,0.00
2022-12-16T06:43:32.707Z,0.00
2022-12-16T06:44:32.253Z,0.00
2022-12-16T06:45:34.918Z,0.00
2022-12-16T06:46:32.299Z,0.00
2022-12-16T06:47:32.201Z,0.00
2022-12-16T06:48:32.202Z,0.00
2022-12-16T06:49:32.195Z,0.00
2022-12-16T06:50:32.390Z,0.00
2022-12-16T06:51:32.381Z,0.00
2022-12-16T06:52:32.370Z,0.00
2022-12-16T06:53:32.552Z,0.00
2022-12-16T06:54:32.140Z,0.00
2022-12-16T06:55:32.122Z,0.00
2022-12-16T06:56:32.108Z,0.00
2022-12-16T06:57:32.107Z,0.00
2022-12-16T06:58:32.110Z,0.00
2022-12-16T06:59:32.066Z,0.00
2022-12-16T07:00:32.066Z,0.00
2022-12-16T07:01:32.186Z,0.00
2022-12-16T07:02:32.358Z,0.00
2022-12-16T07:03:35.801Z,0.00
2022-12-16T07:04:32.014Z,0.00
2022-12-16T07:05:31.990Z,0.00
2022-12-16T07:06:31.986Z,0.00
2022-12-16T07:07:32.175Z,0.00
2022-12-16T07:08:32.216Z,0.00
2022-12-16T07:09:31.956Z,0.00
2022-12-16T07:10:31.952Z,0.00
2022-12-16T07:11:31.924Z,0.00
2022-12-16T07:12:31.914Z,0.00
2022-12-16T07:13:32.496Z,0.00
2022-12-16T07:14:31.921Z,0.00
2022-12-16T07:15:31.874Z,0.00
2022-12-16T07:16:31.979Z,0.00
2022-12-16T07:17:31.842Z,0.00
2022-12-16T07:18:31.844Z,0.00
2022-12-16T07:19:31.909Z,0.00
2022-12-16T07:20:31.821Z,0.00
2022-12-16T07:21:31.825Z,0.00
2022-12-16T07:22:31.810Z,0.00
2022-12-16T07:23:32.125Z,0.00
2022-12-16T07:24:31.963Z,0.00
2022-12-16T07:25:31.974Z,0.00
2022-12-16T07:26:31.749Z,0.00
2022-12-16T07:27:31.729Z,0.00
2022-12-16T07:28:31.938Z,0.00
2022-12-16T07:29:31.710Z,0.00
2022-12-16T07:30:31.929Z,0.00
2022-12-16T07:31:31.744Z,0.00
2022-12-16T07:32:31.667Z,0.00
2022-12-16T07:33:32.108Z,0.00
2022-12-16T07:34:35.712Z,0.00
2022-12-16T07:35:32.849Z,0.00
2022-12-16T07:36:32.375Z,0.00
2022-12-16T07:37:31.616Z,0.00
2022-12-16T07:38:31.599Z,0.00
2022-12-16T07:39:31.595Z,0.00
2022-12-16T07:40:31.796Z,0.00
2022-12-16T07:41:31.764Z,0.00
2022-12-16T07:42:31.553Z,0.00
2022-12-16T07:43:31.878Z,0.00
2022-12-16T07:44:31.533Z,0.00
2022-12-16T07:45:31.811Z,0.00
2022-12-16T07:46:31.606Z,0.00
2022-12-16T07:47:31.703Z,0.00
2022-12-16T07:48:31.485Z,0.00
2022-12-16T07:49:31.482Z,0.00
2022-12-16T07:50:31.462Z,0.00
2022-12-16T07:51:31.442Z,0.00
2022-12-16T07:52:31.461Z,0.00
2022-12-16T07:53:31.718Z,0.00
2022-12-16T07:54:31.423Z,0.00
2022-12-16T07:55:31.409Z,0.00
2022-12-16T07:56:31.400Z,0.00
2022-12-16T07:57:31.381Z,0.00
2022-12-16T07:58:31.392Z,0.00
2022-12-16T07:59:31.350Z,0.00
2022-12-16T08:00:31.363Z,0.00
2022-12-16T08:01:31.661Z,5.62
2022-12-16T08:02:31.502Z,5.62
2022-12-16T08:03:31.743Z,5.62
2022-12-16T08:04:31.297Z,5.62
2022-12-16T08:05:31.291Z,5.62
2022-12-16T08:06:33.911Z,5.62
2022-12-16T08:07:32.261Z,5.62
2022-12-16T08:08:31.241Z,5.62
2022-12-16T08:09:31.236Z,5.62
2022-12-16T08:10:31.217Z,5.62
2022-12-16T08:11:31.219Z,5.62
2022-12-16T08:12:31.421Z,5.62
2022-12-16T08:13:31.407Z,5.62
2022-12-16T08:14:31.165Z,5.62
2022-12-16T08:15:31.166Z,5.62
2022-12-16T08:16:31.177Z,5.62
2022-12-16T08:17:31.149Z,5.62
2022-12-16T08:18:31.165Z,5.62
2022-12-16T08:19:31.124Z,5.62
2022-12-16T08:20:31.104Z,5.62
2022-12-16T08:21:31.096Z,5.62
2022-12-16T08:22:31.076Z,5.62
2022-12-16T08:23:31.625Z,5.62
2022-12-16T08:24:31.056Z,5.62
2022-12-16T08:25:31.041Z,5.62
2022-12-16T08:26:31.232Z,5.62
2022-12-16T08:27:31.048Z,5.62
2022-12-16T08:28:31.013Z,5.62
2022-12-16T08:29:46.412Z,5.62
2022-12-16T08:30:32.023Z,5.62
2022-12-16T08:31:31.211Z,5.62
2022-12-16T08:32:30.960Z,5.62
2022-12-16T08:33:31.010Z,5.62
2022-12-16T08:34:31.273Z,5.62
2022-12-16T08:35:30.979Z,5.62
2022-12-16T08:36:30.968Z,5.62
2022-12-16T08:37:30.945Z,5.62
2022-12-16T08:38:30.886Z,5.62
2022-12-16T08:39:30.875Z,5.62
2022-12-16T08:40:35.807Z,5.62
2022-12-16T08:41:32.094Z,5.62
2022-12-16T08:42:31.056Z,5.62
2022-12-16T08:43:31.388Z,11.25
2022-12-16T08:44:30.809Z,11.25
2022-12-16T08:45:30.808Z,11.25
2022-12-16T08:46:30.836Z,11.25
2022-12-16T08:47:30.805Z,11.25
2022-12-16T08:48:30.764Z,11.25
2022-12-16T08:49:30.766Z,11.25
2022-12-16T08:50:30.735Z,11.25
2022-12-16T08:51:30.732Z,11.25
2022-12-16T08:52:30.923Z,11.25
2022-12-16T08:53:31.229Z,11.25
2022-12-16T08:54:30.905Z,11.25
2022-12-16T08:55:30.693Z,11.25
2022-12-16T08:56:30.662Z,11.25
2022-12-16T08:57:30.663Z,11.25
2022-12-16T08:58:30.832Z,11.25
2022-12-16T08:59:30.632Z,11.25
2022-12-16T09:00:30.623Z,11.25
2022-12-16T09:01:30.681Z,11.25
2022-12-16T09:02:30.938Z,11.25
2022-12-16T09:03:31.036Z,11.25
2022-12-16T09:04:30.809Z,11.25
2022-12-16T09:05:30.571Z,11.25
2022-12-16T09:06:32.419Z,11.25
2022-12-16T09:07:31.539Z,11.25
2022-12-16T09:08:30.527Z,16.88
2022-12-16T09:09:30.706Z,16.88
2022-12-16T09:10:34.596Z,16.88
2022-12-16T09:11:31.496Z,16.88
2022-12-16T09:12:30.707Z,16.88
2022-12-16T09:13:30.816Z,16.88
2022-12-16T09:14:30.457Z,16.88
2022-12-16T09:15:30.507Z,22.50
2022-12-16T09:16:30.508Z,22.50
2022-12-16T09:17:30.415Z,22.50
2022-12-16T09:18:30.405Z,22.50
2022-12-16T09:19:30.625Z,22.50
2022-12-16T09:20:30.383Z,22.50
2022-12-16T09:21:33.371Z,22.50
2022-12-16T09:22:30.354Z,22.50
2022-12-16T09:23:30.577Z,22.50
2022-12-16T09:24:30.334Z,22.50
2022-12-16T09:25:30.557Z,22.50
2022-12-16T09:26:30.359Z,22.50
2022-12-16T09:27:30.295Z,28.12
2022-12-16T09:28:30.282Z,28.12
2022-12-16T09:29:30.272Z,28.12
2022-12-16T09:30:30.281Z,28.12
2022-12-16T09:31:30.353Z,22.50
2022-12-16T09:32:30.231Z,22.50
2022-12-16T09:33:30.727Z,22.50
2022-12-16T09:34:30.211Z,22.50
2022-12-16T09:35:30.430Z,22.50
2022-12-16T09:36:30.192Z,22.50
2022-12-16T09:37:30.169Z,22.50
2022-12-16T09:38:30.380Z,16.88
2022-12-16T09:39:30.149Z,16.88
2022-12-16T09:40:30.136Z,16.88
2022-12-16T09:41:30.139Z,16.88
2022-12-16T09:42:30.107Z,16.88
2022-12-16T09:43:30.664Z,16.88
2022-12-16T09:44:30.087Z,16.88
2022-12-16T09:45:30.083Z,16.88
2022-12-16T09:46:30.169Z,16.88
2022-12-16T09:47:30.056Z,16.88
2022-12-16T09:48:30.065Z,16.88
2022-12-16T09:49:30.028Z,16.88
2022-12-16T09:50:30.016Z,16.88
2022-12-16T09:51:29.995Z,16.88
2022-12-16T09:52:30.001Z,16.88
2022-12-16T09:53:30.791Z,16.88
2022-12-16T09:54:29.984Z,16.88
2022-12-16T09:55:29.954Z,16.88
2022-12-16T09:56:29.952Z,16.88
2022-12-16T09:57:29.931Z,16.88
2022-12-16T09:58:30.133Z,16.88
2022-12-16T09:59:29.903Z,16.88
2022-12-16T10:00:29.905Z,16.88
2022-12-16T10:01:30.053Z,16.88
2022-12-16T10:02:30.099Z,16.88
2022-12-16T10:03:30.061Z,16.88
2022-12-16T10:04:29.890Z,16.88
2022-12-16T10:05:29.833Z,16.88
2022-12-16T10:06:29.820Z,16.88
2022-12-16T10:07:29.830Z,16.88
2022-12-16T10:08:29.830Z,16.88
2022-12-16T10:09:29.790Z,16.88
2022-12-16T10:10:29.769Z,16.88
2022-12-16T10:11:29.763Z,16.88
2022-12-16T10:12:29.749Z,16.88
2022-12-16T10:13:30.197Z,16.88
2022-12-16T10:14:29.726Z,16.88
2022-12-16T10:15:29.768Z,16.88
2022-12-16T10:16:29.811Z,16.88
2022-12-16T10:17:29.706Z,16.88
2022-12-16T10:18:29.941Z,16.88
2022-12-16T10:19:29.666Z,16.88
2022-12-16T10:20:29.676Z,16.88
2022-12-16T10:21:29.636Z,16.88
2022-12-16T10:22:29.631Z,16.88
2022-12-16T10:23:29.732Z,16.88
2022-12-16T10:24:29.636Z,16.88
2022-12-16T10:25:29.595Z,16.88
2022-12-16T10:26:29.582Z,16.88
2022-12-16T10:27:29.568Z,16.88
2022-12-16T10:28:29.780Z,16.88
2022-12-16T10:29:29.543Z,16.88
2022-12-16T10:30:29.774Z,16.88
2022-12-16T10:31:31.675Z,16.88
2022-12-16T10:32:29.732Z,16.88
2022-12-16T10:33:29.547Z,16.88
2022-12-16T10:34:29.489Z,16.88
2022-12-16T10:35:29.691Z,16.88
2022-12-16T10:36:29.471Z,16.88
2022-12-16T10:37:29.442Z,16.88
2022-12-16T10:38:29.461Z,16.88
2022-12-16T10:39:29.425Z,16.88
2022-12-16T10:40:29.626Z,16.88
2022-12-16T10:41:29.389Z,16.88
2022-12-16T10:42:29.379Z,16.88
2022-12-16T10:43:29.605Z,22.50
2022-12-16T10:44:29.359Z,22.50
2022-12-16T10:45:29.347Z,22.50
2022-12-16T10:46:29.395Z,22.50
2022-12-16T10:47:29.339Z,22.50
2022-12-16T10:48:29.351Z,22.50
2022-12-16T10:49:29.364Z,22.50
2022-12-16T10:50:29.291Z,22.50
2022-12-16T10:51:29.280Z,22.50
2022-12-16T10:52:29.489Z,22.50
2022-12-16T10:53:29.446Z,22.50
2022-12-16T10:54:29.235Z,22.50
2022-12-16T10:55:29.226Z,22.50
2022-12-16T10:56:29.441Z,22.50
2022-12-16T10:57:29.197Z,22.50
2022-12-16T10:58:32.657Z,22.50
2022-12-16T10:59:30.167Z,22.50
2022-12-16T11:00:29.168Z,22.50
2022-12-16T11:01:29.268Z,22.50
2022-12-16T11:02:29.303Z,22.50
2022-12-16T11:03:29.314Z,22.50
2022-12-16T11:04:29.116Z,22.50
2022-12-16T11:05:29.194Z,22.50
2022-12-16T11:06:29.189Z,22.50
2022-12-16T11:07:29.622Z,22.50
2022-12-16T11:08:29.135Z,22.50
2022-12-16T11:09:29.402Z,28.12
2022-12-16T11:10:29.050Z,33.75
2022-12-16T11:11:29.032Z,33.75
2022-12-16T11:12:29.220Z,39.38
2022-12-16T11:13:29.377Z,39.38
2022-12-16T11:14:28.990Z,39.38
2022-12-16T11:15:29.811Z,39.38
2022-12-16T11:16:29.062Z,39.38
2022-12-16T11:17:29.178Z,39.38
2022-12-16T11:18:28.946Z,45.00
2022-12-16T11:19:28.928Z,45.00
2022-12-16T11:20:29.137Z,45.00
2022-12-16T11:21:28.915Z,50.62
2022-12-16T11:22:28.901Z,50.62
2022-12-16T11:23:28.878Z,50.62
2022-12-16T11:24:29.058Z,50.62
2022-12-16T11:25:28.857Z,50.62
2022-12-16T11:26:34.485Z,50.62
2022-12-16T11:27:29.835Z,50.62
2022-12-16T11:28:28.829Z,50.62
2022-12-16T11:29:28.804Z,50.62
2022-12-16T11:30:28.794Z,50.62
2022-12-16T11:31:28.890Z,50.62
2022-12-16T11:32:28.774Z,50.62
2022-12-16T11:33:28.769Z,50.62
2022-12-16T11:34:28.876Z,50.62
2022-12-16T11:35:28.744Z,50.62
2022-12-16T11:36:28.725Z,45.00
2022-12-16T11:37:28.914Z,45.00
2022-12-16T11:38:28.693Z,39.38
2022-12-16T11:39:28.686Z,39.38
2022-12-16T11:40:28.893Z,39.38
2022-12-16T11:41:28.652Z,33.75
2022-12-16T11:42:28.653Z,33.75
2022-12-16T11:43:28.862Z,33.75
2022-12-16T11:44:28.611Z,33.75
2022-12-16T11:45:28.611Z,33.75
2022-12-16T11:46:28.950Z,33.75
2022-12-16T11:47:28.588Z,33.75
2022-12-16T11:48:28.582Z,28.12
2022-12-16T11:49:28.551Z,28.12
2022-12-16T11:50:28.757Z,28.12
2022-12-16T11:51:28.548Z,28.12
2022-12-16T11:52:36.997Z,28.12
2022-12-16T11:53:29.933Z,28.12
2022-12-16T11:54:28.488Z,28.12
2022-12-16T11:55:55.830Z,28.12
2022-12-16T11:56:29.552Z,28.12
2022-12-16T11:57:28.482Z,28.12
2022-12-16T11:58:28.438Z,22.50
2022-12-16T11:59:28.439Z,22.50
2022-12-16T12:00:28.408Z,22.50
2022-12-16T12:01:28.477Z,22.50
2022-12-16T12:02:28.435Z,22.50
2022-12-16T12:03:28.468Z,22.50
2022-12-16T12:04:28.449Z,22.50
2022-12-16T12:05:28.347Z,22.50
2022-12-16T12:06:28.338Z,22.50
2022-12-16T12:07:28.345Z,22.50
2022-12-16T12:08:28.309Z,22.50
2022-12-16T12:09:28.299Z,22.50
2022-12-16T12:10:28.288Z,22.50
2022-12-16T12:11:28.283Z,22.50
2022-12-16T12:12:28.286Z,22.50
2022-12-16T12:13:28.295Z,22.50
2022-12-16T12:14:28.236Z,22.50
2022-12-16T12:15:28.235Z,22.50
2022-12-16T12:16:28.246Z,22.50
2022-12-16T12:17:28.203Z,22.50
2022-12-16T12:18:28.400Z,22.50
2022-12-16T12:19:28.423Z,22.50
2022-12-16T12:20:28.162Z,22.50
2022-12-16T12:21:28.151Z,22.50
2022-12-16T12:22:28.132Z,22.50
2022-12-16T12:23:28.141Z,22.50
2022-12-16T12:24:28.322Z,22.50
2022-12-16T12:25:28.301Z,22.50
2022-12-16T12:26:28.088Z,22.50
2022-12-16T12:27:28.080Z,22.50
2022-12-16T12:28:28.290Z,22.50
2022-12-16T12:29:28.050Z,22.50
2022-12-16T12:30:28.030Z,16.88
2022-12-16T12:31:28.102Z,22.50
2022-12-16T12:32:28.010Z,22.50
2022-12-16T12:33:28.008Z,22.50
2022-12-16T12:34:28.199Z,22.50
2022-12-16T12:35:27.980Z,22.50
2022-12-16T12:36:28.854Z,22.50
2022-12-16T12:37:27.958Z,22.50
2022-12-16T12:38:27.940Z,22.50
2022-12-16T12:39:27.928Z,22.50
2022-12-16T12:40:27.939Z,16.88
2022-12-16T12:41:27.905Z,16.88
2022-12-16T12:42:27.889Z,22.50
2022-12-16T12:43:27.888Z,22.50
2022-12-16T12:44:36.637Z,22.50
2022-12-16T12:45:28.856Z,22.50
2022-12-16T12:46:28.072Z,16.88
2022-12-16T12:47:27.826Z,16.88
2022-12-16T12:48:27.825Z,16.88
2022-12-16T12:49:27.805Z,16.88
2022-12-16T12:50:28.024Z,16.88
2022-12-16T12:51:27.776Z,16.88
2022-12-16T12:52:27.775Z,16.88
2022-12-16T12:53:28.055Z,16.88
2022-12-16T12:54:33.080Z,16.88
2022-12-16T12:55:28.727Z,16.88
2022-12-16T12:56:27.721Z,16.88
2022-12-16T12:57:27.711Z,16.88
2022-12-16T12:58:27.723Z,16.88
2022-12-16T12:59:27.903Z,16.88
2022-12-16T13:00:27.672Z,16.88
2022-12-16T13:01:27.747Z,16.88
2022-12-16T13:02:27.697Z,16.88
2022-12-16T13:03:27.687Z,16.88
2022-12-16T13:04:27.654Z,16.88
2022-12-16T13:05:27.603Z,16.88
2022-12-16T13:06:27.590Z,16.88
2022-12-16T13:07:27.579Z,16.88
2022-12-16T13:08:27.580Z,16.88
2022-12-16T13:09:27.800Z,16.88
2022-12-16T13:10:27.540Z,16.88